createdAt,value
2022-09-11T00:00:19.371Z,44.57
2022-09-11T00:02:49.181Z,44.36
2022-09-11T00:05:23.387Z,44.63
2022-09-11T00:07:53.725Z,44.38
2022-09-11T00:10:27.707Z,44.91
2022-09-11T00:12:58.529Z,45.07
2022-09-11T00:15:29.023Z,44.42
2022-09-11T00:17:59.090Z,45.01
2022-09-11T00:20:29.744Z,44.67
2022-09-11T00:23:00.205Z,44.55
2022-09-11T00:25:32.299Z,44.74
2022-09-11T00:28:02.255Z,44.53
2022-09-11T00:30:33.014Z,44.38
2022-09-11T00:33:03.081Z,44.92
2022-09-11T00:35:33.726Z,44.48
2022-09-11T00:38:04.109Z,44.59
2022-09-11T00:40:36.421Z,44.82
2022-09-11T00:43:11.818Z,44.66
2022-09-11T00:45:41.689Z,44.63
2022-09-11T00:48:15.964Z,44.57
2022-09-11T00:50:46.692Z,44.75
2022-09-11T00:53:21.089Z,44.99
2022-09-11T00:55:59.533Z,45.11
2022-09-11T00:58:35.861Z,45.19
2022-09-11T01:01:06.801Z,44.98
2022-09-11T01:03:37.378Z,44.66
2022-09-11T01:06:08.655Z,45.12
2022-09-11T01:08:39.047Z,45.28
2022-09-11T01:11:34.007Z,44.77
2022-09-11T01:14:14.915Z,44.82
2022-09-11T01:16:55.093Z,45.02
2022-09-11T01:19:55.861Z,44.56
2022-09-11T01:23:12.842Z,45.05
2022-09-11T01:26:08.990Z,45.27
2022-09-11T01:28:52.223Z,45.38
2022-09-11T01:31:28.867Z,45.22
2022-09-11T01:34:05.232Z,44.61
2022-09-11T01:36:44.803Z,45.22
2022-09-11T01:39:19.914Z,45.42
2022-09-11T01:42:02.085Z,45.28
2022-09-11T01:44:43.696Z,44.75
2022-09-11T01:47:15.026Z,45.01
2022-09-11T01:49:50.811Z,44.87
2022-09-11T01:52:28.073Z,45.37
2022-09-11T01:55:04.236Z,44.72
2022-09-11T01:57:42.541Z,44.82
2022-09-11T02:00:17.424Z,44.77
2022-09-11T02:02:56.127Z,44.76
2022-09-11T02:05:34.138Z,44.83
2022-09-11T02:08:10.303Z,44.84
2022-09-11T02:10:50.118Z,45.28
2022-09-11T02:13:30.216Z,45.13
2022-09-11T02:16:12.314Z,44.86
2022-09-11T02:18:54.116Z,45.17
2022-09-11T02:21:24.747Z,44.90
2022-09-11T02:23:55.822Z,45.44
2022-09-11T02:26:30.081Z,45.29
2022-09-11T02:29:00.528Z,44.86
2022-09-11T02:31:32.939Z,45.04
2022-09-11T02:34:03.278Z,45.60
2022-09-11T02:36:57.262Z,44.90
2022-09-11T02:39:53.721Z,45.02
2022-09-11T02:42:45.276Z,44.97
2022-09-11T02:45:39.081Z,44.95
2022-09-11T02:48:39.191Z,44.97
2022-09-11T02:51:23.374Z,45.63
2022-09-11T02:54:05.235Z,45.16
2022-09-11T02:56:45.199Z,44.99
2022-09-11T02:59:26.915Z,45.11
2022-09-11T03:02:02.688Z,45.34
2022-09-11T03:04:36.646Z,45.11
2022-09-11T03:07:07.654Z,45.72
2022-09-11T03:09:38.381Z,45.19
2022-09-11T03:12:09.104Z,45.50
2022-09-11T03:14:39.948Z,45.78
2022-09-11T03:17:09.691Z,45.14
2022-09-11T03:19:41.428Z,45.08
2022-09-11T03:22:11.762Z,45.21
2022-09-11T03:24:41.508Z,45.68
2022-09-11T03:27:11.964Z,45.16
2022-09-11T03:29:42.806Z,45.22
2022-09-11T03:32:13.729Z,45.34
2022-09-11T03:34:47.474Z,45.75
2022-09-11T03:37:18.658Z,45.48
2022-09-11T03:39:49.527Z,45.34
2022-09-11T03:42:20.259Z,45.96
2022-09-11T03:44:50.612Z,45.28
2022-09-11T03:47:22.637Z,45.24
2022-09-11T03:49:55.477Z,45.32
2022-09-11T03:52:25.931Z,45.60
2022-09-11T03:54:55.559Z,45.60
2022-09-11T03:57:26.364Z,46.00
2022-09-11T03:59:57.406Z,45.90
2022-09-11T04:02:27.745Z,46.09
2022-09-11T04:04:59.554Z,45.98
2022-09-11T04:07:31.997Z,45.65
2022-09-11T04:10:02.222Z,45.82
2022-09-11T04:12:32.169Z,45.85
2022-09-11T04:15:02.645Z,46.00
2022-09-11T04:17:34.267Z,46.08
2022-09-11T04:20:07.750Z,46.15
2022-09-11T04:22:38.399Z,45.70
2022-09-11T04:25:11.561Z,45.87
2022-09-11T04:27:42.032Z,45.78
2022-09-11T04:30:13.814Z,45.85
2022-09-11T04:32:45.141Z,46.20
2022-09-11T04:35:17.279Z,46.06
2022-09-11T04:37:47.473Z,45.85
2022-09-11T04:40:17.314Z,45.98
2022-09-11T04:42:47.460Z,46.59
2022-09-11T04:45:17.822Z,46.43
2022-09-11T04:47:48.081Z,45.87
2022-09-11T04:50:19.944Z,46.58
2022-09-11T04:52:50.143Z,46.22
2022-09-11T04:55:20.919Z,45.98
2022-09-11T04:57:51.220Z,46.35
2022-09-11T05:00:21.797Z,46.49
2022-09-11T05:02:55.015Z,46.21
2022-09-11T05:05:27.393Z,46.56
2022-09-11T05:07:57.512Z,46.08
2022-09-11T05:10:29.335Z,46.90
2022-09-11T05:12:59.387Z,46.52
2022-09-11T05:15:29.325Z,46.57
2022-09-11T05:17:59.061Z,46.70
2022-09-11T05:20:31.449Z,46.33
2022-09-11T05:23:01.622Z,46.19
2022-09-11T05:25:33.553Z,46.77
2022-09-11T05:28:03.753Z,46.74
2022-09-11T05:30:34.359Z,46.35
2022-09-11T05:33:04.178Z,46.77
2022-09-11T05:35:36.239Z,46.60
2022-09-11T05:38:06.059Z,45.91
2022-09-11T05:40:35.636Z,46.03
2022-09-11T05:43:05.656Z,46.03
2022-09-11T05:45:36.017Z,46.13
2022-09-11T05:48:06.778Z,46.02
2022-09-11T05:50:39.160Z,46.30
2022-09-11T05:53:08.833Z,46.21
2022-09-11T05:55:39.258Z,46.58
2022-09-11T05:58:09.418Z,46.63
2022-09-11T06:00:41.620Z,46.54
2022-09-11T06:03:15.536Z,46.47
2022-09-11T06:05:48.063Z,46.09
2022-09-11T06:08:18.090Z,45.90
2022-09-11T06:10:48.971Z,46.08
2022-09-11T06:13:20.102Z,45.80
2022-09-11T06:15:51.221Z,45.73
2022-09-11T06:18:21.399Z,45.63
2022-09-11T06:21:10.750Z,45.72
2022-09-11T06:23:42.074Z,45.31
2022-09-11T06:26:14.633Z,45.31
2022-09-11T06:28:45.087Z,45.28
2022-09-11T06:31:17.776Z,45.54
2022-09-11T06:33:53.059Z,45.17
2022-09-11T06:36:27.100Z,45.43
2022-09-11T06:38:59.470Z,44.97
2022-09-11T06:41:30.662Z,45.36
2022-09-11T06:44:00.976Z,45.06
2022-09-11T06:46:31.393Z,44.77
2022-09-11T06:49:02.103Z,45.00
2022-09-11T06:51:34.871Z,44.83
2022-09-11T06:54:05.914Z,44.75
2022-09-11T06:56:35.623Z,44.84
2022-09-11T06:59:05.940Z,44.52
2022-09-11T07:01:35.865Z,44.63
2022-09-11T07:04:06.530Z,44.59
2022-09-11T07:06:39.445Z,44.80
2022-09-11T07:09:09.270Z,44.10
2022-09-11T07:11:39.542Z,43.90
2022-09-11T07:14:09.567Z,44.22
2022-09-11T07:16:40.218Z,43.77
2022-09-11T07:19:11.976Z,43.86
2022-09-11T07:21:44.359Z,44.18
2022-09-11T07:24:14.206Z,43.82
2022-09-11T07:26:44.172Z,44.04
2022-09-11T07:29:14.529Z,43.98
2022-09-11T07:31:44.745Z,43.53
2022-09-11T07:34:15.329Z,43.70
2022-09-11T07:36:52.084Z,43.56
2022-09-11T07:39:22.057Z,43.23
2022-09-11T07:41:51.756Z,43.38
2022-09-11T07:44:23.195Z,43.50
2022-09-11T07:46:53.594Z,42.85
2022-09-11T07:49:23.940Z,42.60
2022-09-11T07:52:16.152Z,43.31
2022-09-11T07:54:47.004Z,43.13
2022-09-11T07:57:17.000Z,42.97
2022-09-11T07:59:47.365Z,43.01
2022-09-11T08:02:18.514Z,42.79
2022-09-11T08:04:48.752Z,43.03
2022-09-11T08:07:20.835Z,42.68
2022-09-11T08:10:10.149Z,42.23
2022-09-11T08:12:40.804Z,42.37
2022-09-11T08:15:12.027Z,42.35
2022-09-11T08:17:41.874Z,42.41
2022-09-11T08:20:12.792Z,42.13
2022-09-11T08:22:44.578Z,42.20
2022-09-11T08:25:14.286Z,41.63
2022-09-11T08:27:44.771Z,42.00
2022-09-11T08:30:15.645Z,42.01
2022-09-11T08:32:46.060Z,41.32
2022-09-11T08:35:16.076Z,41.92
2022-09-11T08:37:52.822Z,41.09
2022-09-11T08:40:25.521Z,41.52
2022-09-11T08:42:59.974Z,41.06
2022-09-11T08:45:37.732Z,41.33
2022-09-11T08:48:12.088Z,41.49
2022-09-11T08:50:45.524Z,41.04
2022-09-11T08:53:21.503Z,41.23
2022-09-11T08:55:57.031Z,41.21
2022-09-11T08:58:37.689Z,41.04
2022-09-11T09:01:30.237Z,40.88
2022-09-11T09:04:33.014Z,41.12
2022-09-11T09:07:19.027Z,40.87
2022-09-11T09:10:05.044Z,40.97
2022-09-11T09:12:47.582Z,41.08
2022-09-11T09:15:56.805Z,40.94
2022-09-11T09:18:36.604Z,40.82
2022-09-11T09:21:16.304Z,40.49
2022-09-11T09:23:53.859Z,40.25
2022-09-11T09:26:38.326Z,40.51
2022-09-11T09:29:26.796Z,40.49
2022-09-11T09:32:04.696Z,40.27
2022-09-11T09:34:41.360Z,40.68
2022-09-11T09:37:32.155Z,40.50
2022-09-11T09:40:05.215Z,40.58
2022-09-11T09:43:23.580Z,40.04
2022-09-11T09:46:12.375Z,40.48
2022-09-11T09:48:42.981Z,40.34
2022-09-11T09:51:16.629Z,40.10
2022-09-11T09:53:53.376Z,40.45
2022-09-11T09:56:26.206Z,40.01
2022-09-11T09:59:05.766Z,40.28
2022-09-11T10:01:53.290Z,40.11
2022-09-11T10:04:26.486Z,40.22
2022-09-11T10:07:12.033Z,40.32
2022-09-11T10:09:50.562Z,40.54
2022-09-11T10:12:26.763Z,40.49
2022-09-11T10:15:01.247Z,40.45
2022-09-11T10:17:41.092Z,40.19
2022-09-11T10:20:27.272Z,40.12
2022-09-11T10:22:58.551Z,40.40
2022-09-11T10:25:30.541Z,40.13
2022-09-11T10:28:11.590Z,40.41
2022-09-11T10:30:49.942Z,40.27
2022-09-11T10:33:30.369Z,39.44
2022-09-11T10:36:04.590Z,39.94
2022-09-11T10:38:41.489Z,39.75
2022-09-11T10:41:21.910Z,39.76
2022-09-11T10:44:01.792Z,39.91
2022-09-11T10:46:38.946Z,40.03
2022-09-11T10:49:22.494Z,39.96
2022-09-11T10:52:22.703Z,40.12
2022-09-11T10:55:08.984Z,40.31
2022-09-11T10:57:48.621Z,39.92
2022-09-11T11:00:25.612Z,39.69
2022-09-11T11:03:00.673Z,40.24
2022-09-11T11:05:44.095Z,40.19
2022-09-11T11:09:01.533Z,40.15
2022-09-11T11:11:55.756Z,39.95
2022-09-11T11:15:04.456Z,39.98
2022-09-11T11:17:48.957Z,40.07
2022-09-11T11:20:39.112Z,40.00
2022-09-11T11:23:44.255Z,39.59
2022-09-11T11:26:33.506Z,39.96
2022-09-11T11:29:50.990Z,39.58
2022-09-11T11:32:44.685Z,39.79
2022-09-11T11:35:27.097Z,40.07
2022-09-11T11:38:13.728Z,39.92
2022-09-11T11:40:51.061Z,39.42
2022-09-11T11:43:29.330Z,39.87
2022-09-11T11:46:06.517Z,39.75
2022-09-11T11:48:47.344Z,39.46
2022-09-11T11:51:22.546Z,39.70
2022-09-11T11:54:07.389Z,40.09
2022-09-11T11:56:48.699Z,40.02
2022-09-11T11:59:31.355Z,39.80
2022-09-11T12:02:14.753Z,39.98
2022-09-11T12:04:55.089Z,39.50
2022-09-11T12:07:29.669Z,39.45
2022-09-11T12:10:05.381Z,39.42
2022-09-11T12:12:56.623Z,40.05
2022-09-11T12:15:29.697Z,39.41
2022-09-11T12:18:07.339Z,40.10
2022-09-11T12:20:41.905Z,39.71
2022-09-11T12:23:59.159Z,39.74
2022-09-11T12:26:34.593Z,39.64
2022-09-11T12:29:57.390Z,39.56
2022-09-11T12:32:46.517Z,39.49
2022-09-11T12:35:43.394Z,39.80
2022-09-11T12:38:28.543Z,40.02
2022-09-11T12:41:03.583Z,39.54
2022-09-11T12:43:51.573Z,39.31
2022-09-11T12:47:17.092Z,40.05
2022-09-11T12:50:05.040Z,39.40
2022-09-11T12:52:48.673Z,39.43
2022-09-11T12:55:40.294Z,39.14
2022-09-11T12:58:29.048Z,39.35
2022-09-11T13:01:23.632Z,39.99
2022-09-11T13:04:04.650Z,39.27
2022-09-11T13:06:46.634Z,39.92
2022-09-11T13:09:28.380Z,39.32
2022-09-11T13:12:22.219Z,39.54
2022-09-11T13:14:53.385Z,40.03
2022-09-11T13:17:30.887Z,39.78
2022-09-11T13:20:25.572Z,39.36
2022-09-11T13:23:12.624Z,39.92
2022-09-11T13:25:44.145Z,39.57
2022-09-11T13:28:23.249Z,39.37
2022-09-11T13:31:02.674Z,39.88
2022-09-11T13:33:35.669Z,40.02
2022-09-11T13:36:07.388Z,39.52
2022-09-11T13:38:40.619Z,39.44
2022-09-11T13:41:19.960Z,39.37
2022-09-11T13:43:58.136Z,39.38
2022-09-11T13:46:32.962Z,39.84
2022-09-11T13:49:30.388Z,39.63
2022-09-11T13:52:01.600Z,39.75
2022-09-11T13:54:35.052Z,40.20
2022-09-11T13:57:21.661Z,39.52
2022-09-11T13:59:55.429Z,39.95
2022-09-11T14:02:47.431Z,40.28
2022-09-11T14:05:26.854Z,39.74
2022-09-11T14:08:05.142Z,40.11
2022-09-11T14:10:47.471Z,40.33
2022-09-11T14:13:28.071Z,39.89
2022-09-11T14:16:06.854Z,40.53
2022-09-11T14:18:47.396Z,40.40
2022-09-11T14:21:25.587Z,39.98
2022-09-11T14:23:58.199Z,40.63
2022-09-11T14:26:44.174Z,40.05
2022-09-11T14:29:30.120Z,40.16
2022-09-11T14:32:33.194Z,40.11
2022-09-11T14:35:04.528Z,40.59
2022-09-11T14:37:46.114Z,40.06
2022-09-11T14:40:20.639Z,40.49
2022-09-11T14:42:52.073Z,40.14
2022-09-11T14:45:26.478Z,40.30
2022-09-11T14:47:57.458Z,40.28
2022-09-11T14:50:28.197Z,40.47
2022-09-11T14:53:01.956Z,40.73
2022-09-11T14:55:32.175Z,40.81
2022-09-11T14:58:03.182Z,40.79
2022-09-11T15:00:35.015Z,40.75
2022-09-11T15:03:16.218Z,40.32
2022-09-11T15:05:48.046Z,40.79
2022-09-11T15:08:20.486Z,40.93
2022-09-11T15:10:53.952Z,40.94
2022-09-11T15:13:25.036Z,40.29
2022-09-11T15:15:56.538Z,40.44
2022-09-11T15:18:26.792Z,40.43
2022-09-11T15:20:56.738Z,40.97
2022-09-11T15:23:28.814Z,40.59
2022-09-11T15:26:01.968Z,40.87
2022-09-11T15:28:34.828Z,40.70
2022-09-11T15:31:05.568Z,41.11
2022-09-11T15:33:35.517Z,40.82
2022-09-11T15:36:07.682Z,40.63
2022-09-11T15:38:41.536Z,41.40
2022-09-11T15:41:12.128Z,41.33
2022-09-11T15:43:45.680Z,41.19
2022-09-11T15:46:16.267Z,40.76
2022-09-11T15:48:47.278Z,40.84
2022-09-11T15:51:19.584Z,41.28
2022-09-11T15:53:53.129Z,40.84
2022-09-11T15:56:26.109Z,40.77
2022-09-11T15:58:59.442Z,41.03
2022-09-11T16:01:32.723Z,40.90
2022-09-11T16:04:06.466Z,41.41
2022-09-11T16:06:41.184Z,41.62
2022-09-11T16:09:19.690Z,41.53
2022-09-11T16:11:51.460Z,41.64
2022-09-11T16:14:24.333Z,41.49
2022-09-11T16:16:55.293Z,41.05
2022-09-11T16:19:28.468Z,41.62
2022-09-11T16:22:01.456Z,41.42
2022-09-11T16:24:38.436Z,41.11
2022-09-11T16:27:16.250Z,41.36
2022-09-11T16:32:39.912Z,41.66
2022-09-11T16:35:13.815Z,41.63
2022-09-11T16:37:44.715Z,41.78
2022-09-11T16:40:17.855Z,41.28
2022-09-11T16:42:48.810Z,41.66
2022-09-11T16:45:20.130Z,41.76
2022-09-11T16:47:51.045Z,41.15
2022-09-11T16:50:21.968Z,41.18
2022-09-11T16:52:52.099Z,41.16
2022-09-11T16:55:25.874Z,41.85
2022-09-11T16:57:56.308Z,41.24
2022-09-11T17:00:27.584Z,41.89
2022-09-11T17:03:00.611Z,41.26
2022-09-11T17:05:31.544Z,41.27
2022-09-11T17:08:02.303Z,41.77
2022-09-11T17:10:34.648Z,41.29
2022-09-11T17:13:05.254Z,41.93
2022-09-11T17:15:37.760Z,41.35
2022-09-11T17:18:07.804Z,41.27
2022-09-11T17:20:39.261Z,41.46
2022-09-11T17:23:11.659Z,41.34
2022-09-11T17:25:47.058Z,41.39
2022-09-11T17:28:17.790Z,41.88
2022-09-11T17:30:49.487Z,42.10
2022-09-11T17:33:20.195Z,41.88
2022-09-11T17:35:53.339Z,41.62
2022-09-11T17:38:25.309Z,41.49
2022-09-11T17:41:05.225Z,41.72
2022-09-11T17:43:37.952Z,41.63
2022-09-11T17:46:11.250Z,41.68
2022-09-11T17:48:43.900Z,41.45
2022-09-11T17:51:17.359Z,41.62
2022-09-11T17:53:52.103Z,42.01
2022-09-11T17:56:28.563Z,41.97
2022-09-11T17:59:01.682Z,42.26
2022-09-11T18:01:33.283Z,41.48
2022-09-11T18:04:04.211Z,42.02
2022-09-11T18:06:37.543Z,41.99
2022-09-11T18:09:14.329Z,41.52
2022-09-11T18:11:48.579Z,41.63
2022-09-11T18:14:20.830Z,42.21
2022-09-11T18:16:51.430Z,42.06
2022-09-11T18:19:22.771Z,41.53
2022-09-11T18:21:53.830Z,41.89
2022-09-11T18:24:24.981Z,42.29
2022-09-11T18:27:00.854Z,42.37
2022-09-11T18:29:31.981Z,41.78
2022-09-11T18:32:03.755Z,41.76
2022-09-11T18:34:34.815Z,41.59
2022-09-11T18:37:05.503Z,42.30
2022-09-11T18:39:36.581Z,42.27
2022-09-11T18:42:08.916Z,41.73
2022-09-11T18:44:39.526Z,42.21
2022-09-11T18:47:10.844Z,42.11
2022-09-11T18:49:41.635Z,42.40
2022-09-11T18:52:14.951Z,41.74
2022-09-11T18:54:45.533Z,41.76
2022-09-11T18:57:17.495Z,42.20
2022-09-11T18:59:49.329Z,42.51
2022-09-11T19:02:20.238Z,41.96
2022-09-11T19:04:52.393Z,42.39
2022-09-11T19:07:23.833Z,41.92
2022-09-11T19:09:55.353Z,42.08
2022-09-11T19:12:28.063Z,41.98
2022-09-11T19:15:00.103Z,42.25
2022-09-11T19:17:31.581Z,42.36
2022-09-11T19:20:01.884Z,42.31
2022-09-11T19:22:32.793Z,41.74
2022-09-11T19:25:03.280Z,42.04
2022-09-11T19:27:37.152Z,42.44
2022-09-11T19:30:09.561Z,41.84
2022-09-11T19:32:57.615Z,41.85
2022-09-11T19:35:28.240Z,42.16
2022-09-11T19:38:00.449Z,42.41
2022-09-11T19:40:36.366Z,42.10
2022-09-11T19:43:13.103Z,42.43
2022-09-11T19:45:44.908Z,42.33
2022-09-11T19:48:16.725Z,42.37
2022-09-11T19:50:50.210Z,42.39
2022-09-11T19:53:22.182Z,42.08
2022-09-11T19:55:57.942Z,41.87
2022-09-11T19:58:41.548Z,42.13
2022-09-11T20:01:16.677Z,42.42
2022-09-11T20:03:50.898Z,41.92
2022-09-11T20:06:25.026Z,42.33
2022-09-11T20:09:20.197Z,42.27
2022-09-11T20:11:53.636Z,42.44
2022-09-11T20:14:32.977Z,42.07
2022-09-11T20:17:09.727Z,42.47
2022-09-11T20:19:45.569Z,41.88
2022-09-11T20:22:18.559Z,42.26
2022-09-11T20:24:52.277Z,42.34
2022-09-11T20:27:24.826Z,41.73
2022-09-11T20:30:00.656Z,42.28
2022-09-11T20:32:33.848Z,42.12
2022-09-11T20:35:05.027Z,42.32
2022-09-11T20:37:36.413Z,41.72
2022-09-11T20:40:09.214Z,42.22
2022-09-11T20:42:40.225Z,41.70
2022-09-11T20:45:13.121Z,42.08
2022-09-11T20:47:43.511Z,41.75
2022-09-11T20:50:14.775Z,41.98
2022-09-11T20:52:47.558Z,42.03
2022-09-11T20:55:17.679Z,41.59
2022-09-11T20:57:48.119Z,42.06
2022-09-11T21:00:20.991Z,41.60
2022-09-11T21:02:51.271Z,41.60
2022-09-11T21:05:21.642Z,42.01
2022-09-11T21:07:51.543Z,41.68
2022-09-11T21:10:21.801Z,41.56
2022-09-11T21:12:52.765Z,42.23
2022-09-11T21:15:24.903Z,42.09
2022-09-11T21:17:55.156Z,42.22
2022-09-11T21:20:25.886Z,41.88
2022-09-11T21:22:55.619Z,41.80
2022-09-11T21:25:28.205Z,42.18
2022-09-11T21:27:58.471Z,41.88
2022-09-11T21:30:30.648Z,42.32
2022-09-11T21:33:00.700Z,42.30
2022-09-11T21:35:31.051Z,41.73
2022-09-11T21:38:01.642Z,42.07
2022-09-11T21:40:31.988Z,42.28
2022-09-11T21:43:02.280Z,41.66
2022-09-11T21:45:35.434Z,42.38
2022-09-11T21:48:06.036Z,41.78
2022-09-11T21:50:36.266Z,42.35
2022-09-11T21:53:07.715Z,41.83
2022-09-11T21:55:40.359Z,42.38
2022-09-11T21:58:14.083Z,41.72
2022-09-11T22:00:45.537Z,42.10
2022-09-11T22:03:16.510Z,42.22
2022-09-11T22:05:49.614Z,42.07
2022-09-11T22:08:22.049Z,41.78
2022-09-11T22:10:53.926Z,42.51
2022-09-11T22:13:23.803Z,41.90
2022-09-11T22:15:55.923Z,42.21
2022-09-11T22:18:25.965Z,42.06
2022-09-11T22:20:58.650Z,42.38
2022-09-11T22:23:29.725Z,42.21
2022-09-11T22:26:06.269Z,41.79
2022-09-11T22:28:38.110Z,42.19
2022-09-11T22:31:13.928Z,41.94
2022-09-11T22:33:45.346Z,42.11
2022-09-11T22:36:19.677Z,41.94
2022-09-11T22:38:50.810Z,42.41
2022-09-11T22:41:22.044Z,42.43
2022-09-11T22:43:52.606Z,42.10
2022-09-11T22:46:27.272Z,42.01
2022-09-11T22:48:58.245Z,42.01
2022-09-11T22:51:28.686Z,41.95
2022-09-11T22:53:59.048Z,42.58
2022-09-11T22:56:29.335Z,41.91
2022-09-11T22:58:59.604Z,41.95
2022-09-11T23:01:31.705Z,42.43
2022-09-11T23:04:01.772Z,42.63
2022-09-11T23:06:48.593Z,42.29
2022-09-11T23:09:19.303Z,42.43
2022-09-11T23:11:49.772Z,42.31
2022-09-11T23:14:20.855Z,42.23
2022-09-11T23:16:53.778Z,42.65
2022-09-11T23:19:24.080Z,42.51
2022-09-11T23:21:54.669Z,42.21
2022-09-11T23:24:24.501Z,42.70
2022-09-11T23:26:54.783Z,42.38
2022-09-11T23:29:25.247Z,42.68
2022-09-11T23:31:59.155Z,42.91
2022-09-11T23:34:29.569Z,42.76
2022-09-11T23:37:00.139Z,42.73
2022-09-11T23:39:29.926Z,42.36
2022-09-11T23:41:59.975Z,42.88
2022-09-11T23:44:30.474Z,42.37
2022-09-11T23:47:02.684Z,42.26
2022-09-11T23:49:36.142Z,42.23
2022-09-11T23:52:07.764Z,42.32
2022-09-11T23:54:38.138Z,42.27
2022-09-11T23:57:09.113Z,42.84
2022-09-11T23:59:39.354Z,42.44
